createdAt,value
2018-12-17T00:00:38.011Z,4.19
2018-12-17T00:03:05.555Z,4.20
2018-12-17T00:05:32.971Z,4.20
2018-12-17T00:08:00.454Z,4.19
2018-12-17T00:10:27.892Z,4.16
2018-12-17T00:12:55.365Z,4.10
2018-12-17T00:15:22.887Z,4.05
2018-12-17T00:17:50.331Z,3.95
2018-12-17T00:20:17.811Z,3.90
2018-12-17T00:22:45.302Z,3.86
2018-12-17T00:25:12.749Z,3.81
2018-12-17T00:27:40.206Z,3.78
2018-12-17T00:30:07.973Z,3.77
2018-12-17T00:32:35.492Z,3.78
2018-12-17T00:35:03.103Z,3.75
2018-12-17T00:37:30.547Z,3.76
2018-12-17T00:39:58.434Z,3.75
2018-12-17T00:42:25.871Z,3.70
2018-12-17T00:44:53.316Z,3.65
2018-12-17T00:47:20.735Z,3.63
2018-12-17T00:49:48.188Z,3.61
2018-12-17T00:52:15.684Z,3.58
2018-12-17T00:54:43.150Z,3.55
2018-12-17T00:57:10.686Z,3.52
2018-12-17T00:59:38.223Z,3.48
2018-12-17T01:02:05.659Z,3.42
2018-12-17T01:04:33.139Z,3.39
2018-12-17T01:07:00.683Z,3.39
2018-12-17T01:09:28.159Z,3.37
2018-12-17T01:11:55.634Z,3.37
2018-12-17T01:14:23.067Z,3.36
2018-12-17T01:16:50.511Z,3.36
2018-12-17T01:19:18.046Z,3.35
2018-12-17T01:21:45.567Z,3.33
2018-12-17T01:24:13.028Z,3.33
2018-12-17T01:26:40.485Z,3.32
2018-12-17T01:29:07.951Z,3.31
2018-12-17T01:31:35.391Z,3.31
2018-12-17T01:34:02.825Z,3.32
2018-12-17T01:36:30.250Z,3.32
2018-12-17T01:38:57.782Z,3.29
2018-12-17T01:41:25.216Z,3.30
2018-12-17T01:43:52.652Z,3.30
2018-12-17T01:46:20.100Z,3.30
2018-12-17T01:48:47.548Z,3.31
2018-12-17T01:51:15.012Z,3.33
2018-12-17T01:53:42.502Z,3.33
2018-12-17T01:56:10.022Z,3.35
2018-12-17T01:58:37.529Z,3.33
2018-12-17T02:01:04.971Z,3.34
2018-12-17T02:03:32.439Z,3.35
2018-12-17T02:05:59.895Z,3.32
2018-12-17T02:08:27.361Z,3.34
2018-12-17T02:10:54.788Z,3.34
2018-12-17T02:13:22.249Z,3.35
2018-12-17T02:15:49.703Z,3.36
2018-12-17T02:18:17.144Z,3.37
2018-12-17T02:20:44.604Z,3.36
2018-12-17T02:23:12.081Z,3.40
2018-12-17T02:25:39.507Z,3.40
2018-12-17T02:28:06.975Z,3.42
2018-12-17T02:30:34.438Z,3.46
2018-12-17T02:33:01.892Z,3.51
2018-12-17T02:35:29.330Z,3.53
2018-12-17T02:37:56.766Z,3.57
2018-12-17T02:40:24.195Z,3.61
2018-12-17T02:42:51.678Z,3.61
2018-12-17T02:45:19.170Z,3.61
2018-12-17T02:47:46.625Z,3.56
2018-12-17T02:50:14.030Z,3.55
2018-12-17T02:52:41.488Z,3.53
2018-12-17T02:55:08.910Z,3.52
2018-12-17T02:57:36.359Z,3.50
2018-12-17T03:00:06.093Z,3.48
2018-12-17T03:02:33.558Z,3.50
2018-12-17T03:05:00.985Z,3.51
2018-12-17T03:07:28.418Z,3.54
2018-12-17T03:09:55.856Z,3.55
2018-12-17T03:12:23.273Z,3.56
2018-12-17T03:14:50.714Z,3.57
2018-12-17T03:17:18.169Z,3.57
2018-12-17T03:19:45.605Z,3.59
2018-12-17T03:22:13.103Z,3.57
2018-12-17T03:24:40.705Z,3.56
2018-12-17T03:27:09.672Z,3.56
2018-12-17T03:29:37.136Z,3.57
2018-12-17T03:32:04.735Z,3.59
2018-12-17T03:34:32.233Z,3.65
2018-12-17T03:36:59.654Z,3.69
2018-12-17T03:39:27.182Z,3.74
2018-12-17T03:41:54.597Z,3.78
2018-12-17T03:44:22.115Z,3.83
2018-12-17T03:46:49.559Z,3.84
2018-12-17T03:49:16.978Z,3.84
2018-12-17T03:51:44.473Z,3.85
2018-12-17T03:54:11.890Z,3.83
2018-12-17T03:56:39.338Z,3.85
2018-12-17T03:59:06.760Z,3.85
2018-12-17T04:01:34.257Z,3.87
2018-12-17T04:04:01.673Z,3.87
2018-12-17T04:06:29.128Z,3.87
2018-12-17T04:08:56.583Z,3.88
2018-12-17T04:11:24.034Z,3.90
2018-12-17T04:13:51.489Z,3.92
2018-12-17T04:16:18.933Z,3.96
2018-12-17T04:18:46.389Z,4.00
2018-12-17T04:21:13.831Z,4.00
2018-12-17T04:23:41.262Z,4.03
2018-12-17T04:26:09.810Z,4.06
2018-12-17T04:28:37.263Z,4.08
2018-12-17T04:31:04.705Z,4.09
2018-12-17T04:33:32.202Z,4.09
2018-12-17T04:35:59.637Z,4.12
2018-12-17T04:38:27.082Z,4.12
2018-12-17T04:40:54.556Z,4.14
2018-12-17T04:43:22.020Z,4.15
2018-12-17T04:45:49.491Z,4.16
2018-12-17T04:48:17.050Z,4.14
2018-12-17T04:50:44.542Z,4.15
2018-12-17T04:53:12.000Z,4.17
2018-12-17T04:55:39.457Z,4.16
2018-12-17T04:58:07.074Z,4.18
2018-12-17T05:00:34.599Z,4.19
2018-12-17T05:03:02.060Z,4.20
2018-12-17T05:05:29.570Z,4.20
2018-12-17T05:07:57.017Z,4.23
2018-12-17T05:10:24.470Z,4.17
2018-12-17T05:12:51.932Z,4.20
2018-12-17T05:15:19.508Z,4.23
2018-12-17T05:17:46.944Z,4.25
2018-12-17T05:20:14.410Z,4.27
2018-12-17T05:22:41.859Z,4.28
2018-12-17T05:25:09.406Z,4.29
2018-12-17T05:27:41.007Z,4.29
2018-12-17T05:30:08.922Z,4.31
2018-12-17T05:32:36.344Z,4.33
2018-12-17T05:35:04.312Z,4.36
2018-12-17T05:37:31.735Z,4.36
2018-12-17T05:39:59.186Z,4.37
2018-12-17T05:42:26.644Z,4.38
2018-12-17T05:44:54.193Z,4.38
2018-12-17T05:47:21.621Z,4.39
2018-12-17T05:49:49.108Z,4.40
2018-12-17T05:52:16.707Z,4.42
2018-12-17T05:54:44.169Z,4.43
2018-12-17T05:57:11.628Z,4.44
2018-12-17T05:59:39.145Z,4.43
2018-12-17T06:02:06.582Z,4.44
2018-12-17T06:04:34.037Z,4.46
2018-12-17T06:07:01.487Z,4.48
2018-12-17T06:09:29.085Z,4.49
2018-12-17T06:11:56.530Z,4.48
2018-12-17T06:14:24.032Z,4.51
2018-12-17T06:16:51.487Z,4.53
2018-12-17T06:19:18.909Z,4.54
2018-12-17T06:21:46.358Z,4.54
2018-12-17T06:24:13.774Z,4.54
2018-12-17T06:26:41.237Z,4.55
2018-12-17T06:29:08.666Z,4.60
2018-12-17T06:31:36.256Z,4.63
2018-12-17T06:34:03.682Z,4.67
2018-12-17T06:36:31.173Z,4.70
2018-12-17T06:38:58.621Z,4.74
2018-12-17T06:41:26.075Z,4.77
2018-12-17T06:43:53.518Z,4.76
2018-12-17T06:46:20.983Z,4.79
2018-12-17T06:48:48.429Z,4.76
2018-12-17T06:51:15.885Z,4.74
2018-12-17T06:53:43.331Z,4.77
2018-12-17T06:56:10.834Z,4.82
2018-12-17T06:58:38.374Z,4.84
2018-12-17T07:01:05.813Z,4.86
2018-12-17T07:03:33.262Z,4.84
2018-12-17T07:06:00.704Z,4.85
2018-12-17T07:08:28.296Z,4.89
2018-12-17T07:10:55.741Z,4.91
2018-12-17T07:13:23.185Z,4.96
2018-12-17T07:15:50.660Z,4.99
2018-12-17T07:18:19.039Z,5.00
2018-12-17T07:20:46.475Z,5.02
2018-12-17T07:23:13.983Z,5.03
2018-12-17T07:25:41.433Z,5.03
2018-12-17T07:28:08.845Z,5.05
2018-12-17T07:30:36.289Z,5.07
2018-12-17T07:33:03.736Z,5.09
2018-12-17T07:35:31.172Z,5.11
2018-12-17T07:37:58.627Z,5.15
2018-12-17T07:40:26.129Z,5.20
2018-12-17T07:42:53.562Z,5.22
2018-12-17T07:45:20.997Z,5.26
2018-12-17T07:47:48.408Z,5.27
2018-12-17T07:50:15.859Z,5.30
2018-12-17T07:52:43.339Z,5.32
2018-12-17T07:55:10.957Z,5.36
2018-12-17T07:57:38.407Z,5.39
2018-12-17T08:00:07.504Z,5.40
2018-12-17T08:02:34.917Z,5.45
2018-12-17T08:05:02.450Z,5.49
2018-12-17T08:07:29.894Z,5.53
2018-12-17T08:09:57.378Z,5.58
2018-12-17T08:12:24.824Z,5.63
2018-12-17T08:14:52.279Z,5.65
2018-12-17T08:17:19.811Z,5.66
2018-12-17T08:19:47.374Z,5.68
2018-12-17T08:22:14.806Z,5.70
2018-12-17T08:24:42.280Z,5.69
2018-12-17T08:27:09.757Z,5.70
2018-12-17T08:29:37.204Z,5.72
2018-12-17T08:32:04.709Z,5.74
2018-12-17T08:34:34.110Z,5.79
2018-12-17T08:37:01.540Z,5.80
2018-12-17T08:39:29.115Z,5.84
2018-12-17T08:41:56.553Z,5.87
2018-12-17T08:44:23.961Z,5.88
2018-12-17T08:46:51.402Z,5.90
2018-12-17T08:49:18.819Z,5.93
2018-12-17T08:51:46.294Z,5.98
2018-12-17T08:54:13.716Z,6.01
2018-12-17T08:56:41.194Z,6.05
2018-12-17T08:59:08.619Z,6.09
2018-12-17T09:01:36.151Z,6.13
2018-12-17T09:04:03.674Z,6.16
2018-12-17T09:06:31.115Z,6.19
2018-12-17T09:08:58.542Z,6.22
2018-12-17T09:11:26.048Z,6.23
2018-12-17T09:13:53.503Z,6.26
2018-12-17T09:16:22.132Z,6.30
2018-12-17T09:18:49.653Z,6.31
2018-12-17T09:21:17.074Z,6.35
2018-12-17T09:23:44.519Z,6.38
2018-12-17T09:26:11.938Z,6.40
2018-12-17T09:28:39.366Z,6.42
2018-12-17T09:31:06.874Z,6.44
2018-12-17T09:33:34.810Z,6.46
2018-12-17T09:36:02.321Z,6.51
2018-12-17T09:38:29.786Z,6.56
2018-12-17T09:40:57.261Z,6.58
2018-12-17T09:43:24.723Z,6.60
2018-12-17T09:45:52.269Z,6.64
2018-12-17T09:48:19.818Z,6.67
2018-12-17T09:50:47.394Z,6.71
2018-12-17T09:53:14.825Z,6.78
2018-12-17T09:55:42.360Z,6.84
2018-12-17T09:58:09.802Z,6.88
2018-12-17T10:00:37.268Z,6.93
2018-12-17T10:03:04.695Z,6.98
2018-12-17T10:05:32.133Z,7.04
2018-12-17T10:07:59.585Z,7.11
2018-12-17T10:10:27.051Z,7.18
2018-12-17T10:12:54.471Z,7.24
2018-12-17T10:15:21.946Z,7.31
2018-12-17T10:17:50.399Z,7.36
2018-12-17T10:20:17.862Z,7.41
2018-12-17T10:22:45.287Z,7.47
2018-12-17T10:25:12.723Z,7.53
2018-12-17T10:27:40.140Z,7.60
2018-12-17T10:30:07.770Z,7.67
2018-12-17T10:32:35.190Z,7.70
2018-12-17T10:35:02.611Z,7.66
2018-12-17T10:37:30.325Z,7.62
2018-12-17T10:39:57.787Z,7.66
2018-12-17T10:42:25.214Z,7.69
2018-12-17T10:44:52.672Z,7.74
2018-12-17T10:47:20.095Z,7.77
2018-12-17T10:49:47.534Z,7.78
2018-12-17T10:52:14.990Z,7.77
2018-12-17T10:54:42.428Z,7.80
2018-12-17T10:57:09.873Z,7.80
2018-12-17T10:59:37.302Z,7.82
2018-12-17T11:02:07.050Z,7.84
2018-12-17T11:04:36.459Z,7.86
2018-12-17T11:07:04.195Z,7.85
2018-12-17T11:09:31.611Z,7.87
2018-12-17T11:11:59.074Z,7.86
2018-12-17T11:14:26.502Z,7.86
2018-12-17T11:16:53.935Z,7.85
2018-12-17T11:19:21.526Z,7.85
2018-12-17T11:21:49.103Z,7.86
2018-12-17T11:24:16.626Z,7.86
2018-12-17T11:26:44.069Z,7.86
2018-12-17T11:29:11.525Z,7.85
2018-12-17T11:31:38.954Z,7.83
2018-12-17T11:34:06.396Z,7.81
2018-12-17T11:36:33.811Z,7.78
2018-12-17T11:39:01.348Z,7.80
2018-12-17T11:41:28.775Z,7.81
2018-12-17T11:43:56.218Z,7.84
2018-12-17T11:46:23.781Z,7.83
2018-12-17T11:48:51.349Z,7.83
2018-12-17T11:51:18.762Z,7.80
2018-12-17T11:53:46.213Z,7.78
2018-12-17T11:56:13.858Z,7.79
2018-12-17T11:58:41.408Z,7.78
2018-12-17T12:01:10.118Z,7.79
2018-12-17T12:03:38.337Z,7.78
2018-12-17T12:06:06.067Z,7.79
2018-12-17T12:08:33.503Z,7.82
2018-12-17T12:11:00.965Z,7.84
2018-12-17T12:13:28.411Z,7.87
2018-12-17T12:15:55.832Z,7.89
2018-12-17T12:18:23.264Z,7.93
2018-12-17T12:20:50.714Z,7.99
2018-12-17T12:23:18.129Z,8.01
2018-12-17T12:25:45.575Z,8.01
2018-12-17T12:28:13.104Z,8.00
2018-12-17T12:30:40.642Z,8.00
2018-12-17T12:33:08.107Z,8.03
2018-12-17T12:35:35.626Z,8.05
2018-12-17T12:38:03.056Z,8.08
2018-12-17T12:40:30.487Z,8.11
2018-12-17T12:42:57.903Z,8.09
2018-12-17T12:45:25.362Z,8.08
2018-12-17T12:47:52.787Z,8.08
2018-12-17T12:50:20.239Z,8.11
2018-12-17T12:52:47.690Z,8.12
2018-12-17T12:55:15.235Z,8.14
2018-12-17T12:57:42.666Z,8.11
2018-12-17T13:00:11.526Z,8.11
2018-12-17T13:02:39.073Z,8.12
2018-12-17T13:05:06.685Z,8.10
2018-12-17T13:07:34.138Z,8.08
2018-12-17T13:10:01.564Z,8.08
2018-12-17T13:12:28.982Z,8.10
2018-12-17T13:14:56.415Z,8.08
2018-12-17T13:17:28.193Z,8.07
2018-12-17T13:19:59.554Z,8.05
2018-12-17T13:22:26.994Z,8.06
2018-12-17T13:24:54.416Z,8.08
2018-12-17T13:27:21.892Z,8.10
2018-12-17T13:29:49.312Z,8.10
2018-12-17T13:32:17.072Z,8.13
2018-12-17T13:34:44.483Z,8.17
2018-12-17T13:37:11.931Z,8.18
2018-12-17T13:39:39.361Z,8.21
2018-12-17T13:42:07.899Z,8.21
2018-12-17T13:44:35.360Z,8.26
2018-12-17T13:47:02.890Z,8.30
2018-12-17T13:49:30.345Z,8.34
2018-12-17T13:55:05.732Z,8.34
2018-12-17T13:57:33.172Z,8.35
2018-12-17T14:00:00.604Z,8.37
2018-12-17T14:02:28.040Z,8.37
2018-12-17T14:04:55.635Z,8.38
2018-12-17T14:07:23.062Z,8.39
2018-12-17T14:12:55.690Z,8.42
2018-12-17T14:15:25.138Z,8.43
2018-12-17T14:17:54.583Z,8.43
2018-12-17T14:20:27.695Z,8.45
2018-12-17T14:22:55.169Z,8.44
2018-12-17T14:25:22.830Z,8.45
2018-12-17T14:27:50.257Z,8.50
2018-12-17T14:30:17.731Z,8.52
2018-12-17T14:32:45.148Z,8.54
2018-12-17T14:35:12.579Z,8.54
2018-12-17T14:37:41.986Z,8.56
2018-12-17T14:40:09.644Z,8.57
2018-12-17T14:42:37.066Z,8.60
2018-12-17T14:45:04.888Z,8.63
2018-12-17T14:47:32.419Z,8.67
2018-12-17T14:49:59.857Z,8.70
2018-12-17T14:52:27.324Z,8.72
2018-12-17T14:54:54.771Z,8.75
2018-12-17T14:57:22.291Z,8.76
2018-12-17T14:59:49.726Z,8.78
2018-12-17T15:02:17.314Z,8.79
2018-12-17T15:04:44.777Z,8.77
2018-12-17T15:07:12.205Z,8.74
2018-12-17T15:09:39.622Z,8.68
2018-12-17T15:12:07.062Z,8.66
2018-12-17T15:14:34.487Z,8.62
2018-12-17T15:17:01.926Z,8.58
2018-12-17T15:19:29.415Z,8.52
2018-12-17T15:21:56.887Z,8.48
2018-12-17T15:24:24.653Z,8.44
2018-12-17T15:26:52.198Z,8.38
2018-12-17T15:29:19.863Z,8.31
2018-12-17T15:31:47.425Z,8.26
2018-12-17T15:34:14.990Z,8.20
2018-12-17T15:36:42.649Z,8.17
2018-12-17T15:39:10.088Z,8.13
2018-12-17T15:41:37.555Z,8.10
2018-12-17T15:44:04.994Z,8.05
2018-12-17T15:46:32.452Z,8.02
2018-12-17T15:48:59.990Z,8.01
2018-12-17T15:51:27.420Z,7.98
2018-12-17T15:53:54.872Z,7.95
2018-12-17T15:56:22.292Z,7.91
2018-12-17T15:58:49.734Z,7.87
2018-12-17T16:01:17.173Z,7.86
2018-12-17T16:03:44.601Z,7.88
2018-12-17T16:06:12.045Z,7.90
2018-12-17T16:08:39.486Z,7.92
2018-12-17T16:11:07.002Z,7.95
2018-12-17T16:13:34.464Z,7.99
2018-12-17T16:16:01.882Z,8.02
2018-12-17T16:18:29.443Z,8.06
2018-12-17T16:20:56.888Z,8.08
2018-12-17T16:23:24.320Z,8.08
2018-12-17T16:25:51.773Z,8.11
2018-12-17T16:28:19.214Z,8.09
2018-12-17T16:33:20.432Z,7.96
2018-12-17T16:35:47.900Z,7.91
2018-12-17T16:38:15.329Z,7.89
2018-12-17T16:40:42.951Z,7.83
2018-12-17T16:43:10.383Z,7.80
2018-12-17T16:45:37.838Z,7.76
2018-12-17T16:48:05.270Z,7.72
2018-12-17T16:50:32.709Z,7.68
2018-12-17T16:53:00.181Z,7.67
2018-12-17T16:55:28.337Z,7.63
2018-12-17T16:57:55.809Z,7.59
2018-12-17T17:00:23.258Z,7.56
2018-12-17T17:02:50.854Z,7.55
2018-12-17T17:05:18.476Z,7.52
2018-12-17T17:07:45.925Z,7.49
2018-12-17T17:10:13.420Z,7.49
2018-12-17T17:12:41.006Z,7.47
2018-12-17T17:15:09.491Z,7.45
2018-12-17T17:17:36.953Z,7.44
2018-12-17T17:20:06.096Z,7.42
2018-12-17T17:22:33.541Z,7.39
2018-12-17T17:25:01.046Z,7.37
2018-12-17T17:27:30.444Z,7.36
2018-12-17T17:29:58.096Z,7.32
2018-12-17T17:32:25.546Z,7.31
2018-12-17T17:34:53.014Z,7.30
2018-12-17T17:37:20.412Z,7.29
2018-12-17T17:39:49.916Z,7.27
2018-12-17T17:42:17.472Z,7.26
2018-12-17T17:44:45.763Z,7.23
2018-12-17T17:47:13.181Z,7.22
2018-12-17T17:49:40.651Z,7.22
2018-12-17T17:52:08.091Z,7.22
2018-12-17T17:54:35.550Z,7.17
2018-12-17T17:57:07.225Z,7.15
2018-12-17T17:59:34.916Z,7.17
2018-12-17T18:02:02.354Z,7.19
2018-12-17T18:04:29.915Z,7.17
2018-12-17T18:06:57.393Z,7.16
2018-12-17T18:09:24.875Z,7.14
2018-12-17T18:11:52.343Z,7.13
2018-12-17T18:14:19.798Z,7.14
2018-12-17T18:16:47.438Z,7.14
2018-12-17T18:19:14.895Z,7.10
2018-12-17T18:21:42.391Z,7.09
2018-12-17T18:24:09.863Z,7.06
2018-12-17T18:26:37.309Z,7.07
2018-12-17T18:29:08.960Z,7.03
2018-12-17T18:31:36.443Z,7.03
2018-12-17T18:34:04.906Z,7.02
2018-12-17T18:36:32.395Z,7.03
2018-12-17T18:38:59.898Z,7.03
2018-12-17T18:41:27.497Z,7.03
2018-12-17T18:43:59.614Z,7.01
2018-12-17T18:46:27.215Z,6.99
2018-12-17T18:48:54.779Z,6.98
2018-12-17T18:51:22.242Z,6.98
2018-12-17T18:53:49.691Z,6.98
2018-12-17T18:56:17.294Z,6.97
2018-12-17T18:58:46.024Z,6.96
2018-12-17T19:01:13.591Z,6.95
2018-12-17T19:03:41.051Z,6.97
2018-12-17T19:06:08.480Z,6.98
2018-12-17T19:08:36.125Z,6.96
2018-12-17T19:11:03.615Z,6.96
2018-12-17T19:13:31.200Z,6.95
2018-12-17T19:15:58.649Z,6.94
2018-12-17T19:18:26.971Z,6.89
2018-12-17T19:20:54.400Z,6.87
2018-12-17T19:23:22.009Z,6.86
2018-12-17T19:25:49.492Z,6.84
2018-12-17T19:28:16.974Z,6.84
2018-12-17T19:30:45.040Z,6.83
2018-12-17T19:33:12.578Z,6.85
2018-12-17T19:35:40.047Z,6.87
2018-12-17T19:38:07.539Z,6.89
2018-12-17T19:40:35.012Z,6.86
2018-12-17T19:43:02.521Z,6.83
2018-12-17T19:45:29.978Z,6.83
2018-12-17T19:47:57.402Z,6.81
2018-12-17T19:50:29.330Z,6.80
2018-12-17T19:52:56.833Z,6.79
2018-12-17T19:55:24.388Z,6.79
2018-12-17T19:57:51.923Z,6.80
2018-12-17T20:00:19.536Z,6.81
2018-12-17T20:02:47.341Z,6.83
2018-12-17T20:05:14.800Z,6.85
2018-12-17T20:07:42.355Z,6.91
2018-12-17T20:10:11.910Z,6.95
2018-12-17T20:12:39.477Z,6.99
2018-12-17T20:15:07.048Z,7.01
2018-12-17T20:17:34.661Z,7.05
2018-12-17T20:20:02.291Z,7.06
2018-12-17T20:22:29.756Z,7.10
2018-12-17T20:24:57.269Z,7.11
2018-12-17T20:27:24.719Z,7.08
2018-12-17T20:29:52.384Z,7.02
2018-12-17T20:32:19.801Z,6.97
2018-12-17T20:34:47.329Z,6.93
2018-12-17T20:37:14.733Z,6.91
2018-12-17T20:39:42.351Z,6.88
2018-12-17T20:42:09.801Z,6.86
2018-12-17T20:44:37.241Z,6.85
2018-12-17T20:47:04.821Z,6.82
2018-12-17T20:49:32.265Z,6.81
2018-12-17T20:51:59.732Z,6.81
2018-12-17T20:54:27.203Z,6.81
2018-12-17T20:56:54.642Z,6.78
2018-12-17T20:59:22.174Z,6.77
2018-12-17T21:01:49.621Z,6.75
2018-12-17T21:04:17.065Z,6.73
2018-12-17T21:06:49.904Z,6.71
2018-12-17T21:09:14.040Z,6.70
2018-12-17T21:11:42.244Z,6.70
2018-12-17T21:14:09.670Z,6.67
2018-12-17T21:16:37.263Z,6.66
2018-12-17T21:19:04.700Z,6.64
2018-12-17T21:21:32.130Z,6.62
2018-12-17T21:23:59.601Z,6.59
2018-12-17T21:26:27.063Z,6.59
2018-12-17T21:28:55.867Z,6.59
2018-12-17T21:31:23.494Z,6.57
2018-12-17T21:33:50.922Z,6.54
2018-12-17T21:36:18.367Z,6.55
2018-12-17T21:38:45.840Z,6.53
2018-12-17T21:41:13.273Z,6.51
2018-12-17T21:43:41.637Z,6.48
2018-12-17T21:46:09.124Z,6.48
2018-12-17T21:48:36.561Z,6.46
2018-12-17T21:51:04.236Z,6.44
2018-12-17T21:53:31.910Z,6.43
2018-12-17T21:55:59.345Z,6.41
2018-12-17T21:58:26.846Z,6.42
2018-12-17T22:00:54.267Z,6.43
2018-12-17T22:03:21.675Z,6.48
2018-12-17T22:05:49.121Z,6.58
2018-12-17T22:08:16.554Z,6.64
2018-12-17T22:10:44.159Z,6.68
2018-12-17T22:13:11.605Z,6.69
2018-12-17T22:15:39.072Z,6.72
2018-12-17T22:18:06.497Z,6.68
2018-12-17T22:20:33.966Z,6.62
2018-12-17T22:23:01.415Z,6.61
2018-12-17T22:25:28.877Z,6.62
2018-12-17T22:27:56.313Z,6.63
2018-12-17T22:30:23.740Z,6.66
2018-12-17T22:32:51.210Z,6.69
2018-12-17T22:35:18.654Z,6.71
2018-12-17T22:37:46.117Z,6.71
2018-12-17T22:40:13.655Z,6.70
2018-12-17T22:42:41.095Z,6.72
2018-12-17T22:45:08.823Z,6.74
2018-12-17T22:47:36.387Z,6.77
2018-12-17T22:50:08.124Z,6.80
2018-12-17T22:52:35.560Z,6.82
2018-12-17T22:55:03.050Z,6.84
2018-12-17T22:57:30.543Z,6.82
2018-12-17T22:59:57.979Z,6.79
2018-12-17T23:02:25.498Z,6.83
2018-12-17T23:04:52.916Z,6.84
2018-12-17T23:07:20.397Z,6.85
2018-12-17T23:09:59.731Z,6.87
2018-12-17T23:12:39.106Z,6.89
2018-12-17T23:15:18.501Z,6.89
2018-12-17T23:17:45.555Z,6.91
2018-12-17T23:20:13.052Z,6.92
2018-12-17T23:22:42.767Z,6.93
2018-12-17T23:25:10.203Z,6.94
2018-12-17T23:27:37.823Z,6.95
2018-12-17T23:30:06.909Z,6.97
2018-12-17T23:32:34.540Z,6.98
2018-12-17T23:35:01.963Z,7.00
2018-12-17T23:37:29.392Z,7.02
2018-12-17T23:39:56.952Z,7.04
2018-12-17T23:42:24.382Z,7.04
2018-12-17T23:44:51.886Z,7.04
2018-12-17T23:47:19.353Z,7.03
2018-12-17T23:49:46.832Z,7.06
2018-12-17T23:52:14.357Z,7.07
2018-12-17T23:54:41.987Z,7.07
2018-12-17T23:57:09.439Z,7.09
2018-12-17T23:59:36.893Z,7.11
